< Typhoon 201112 2011 Season Typhoon 201114 >
Typhoon 201113 (NORU)
General InformationTrack Information on Google MapsDetailed Wind InformationAccess Analytics MapList of All Images || NewsDisaster Info.WeblogTrackbackTyphoon FrontTwiphoonTyphoon Now!Typhoon ImaginationResourceGoogle EarthGE AnimationAtom FeedGeoJSON
Detalied Best Track (Time Zone = UTC)
Year Month Day Hour Lat. Long. Pressure (hPa) Wind (kt) Class Image Chart
2011 9 2 00 21.3 149.8 1004 0 2 Image Chart
2011 9 2 06 20.9 149.0 1004 0 2 Image Chart
2011 9 2 12 20.2 148.3 1002 0 2 Image Chart
2011 9 2 18 19.7 147.8 1002 0 2 Image Chart
2011 9 3 00 19.8 148.2 1002 0 2 Image Chart
2011 9 3 06 20.6 149.3 1000 0 2 Image Chart
2011 9 3 12 22.2 150.3 998 35 3 Image Chart
2011 9 3 18 24.7 151.4 996 40 3 Image Chart
2011 9 4 00 27.5 151.4 996 40 3 Image Chart
2011 9 4 06 29.4 150.8 994 40 3 Image Chart
2011 9 4 12 30.8 150.1 994 40 3 Image Chart
2011 9 4 18 32.2 149.6 992 40 3 Image Chart
2011 9 5 00 33.4 149.6 992 40 3 Image Chart
2011 9 5 06 35.1 150.0 990 40 3 Image Chart
2011 9 5 12 36.5 148.5 990 40 3 Image Chart
2011 9 5 18 36.8 148.4 990 40 3 Image Chart
2011 9 6 00 37.9 149.4 990 40 3 Image Chart
2011 9 6 06 39.4 150.1 990 40 3 Image Chart
2011 9 6 12 41.4 150.8 990 0 6 Image Chart
2011 9 6 18 43.8 148.9 990 0 6 Image Chart
2011 9 7 00 46.2 149.3 992 0 6 Image Chart
2011 9 7 06 49.6 145.2 988 0 6 Image Chart
2011 9 7 12 51.5 141.4 986 0 6 Image Chart
2011 9 7 18 53.1 141.2 984 0 6 Image Chart
2011 9 8 00 54.8 141.0 984 0 6 Image Chart
2011 9 8 06 55.9 141.3 984 0 6 Image Chart
2011 9 8 12 57.0 141.8 986 0 6 Image Chart
2011 9 8 18 58.2 142.5 986 0 6 Image Chart
2011 9 9 00 59.2 142.7 982 0 6 Image Chart
2011 9 9 06 61.5 141.6 984 0 6 Image Chart
Japan Meteorological Agency Best Track Data | Correction Date : 2011-10-26
< Typhoon 201112 2011 Season Typhoon 201114 >

Help